Norwegian Dream — C6LG5 — position and weather

sailwx.info

Track history (hours):
 
Tides and Currents Weather Stations Pressure Air Temp Water Temp Dewpoint Dewpoint Depression Visibility Wind Speed Wind Dir Waves Ship Positions

Norwegian Dream

Operator: Norwegian Cruise Line

Last reported at 2018-Sep-24 19:25 UTC. Time now 2018-Sep-24 21:50 UTC.
Position N 24°21' E 118°48'.

Type: Ship. MMSI: 308272000.

Date/timePositionNaut miles runAvg speedWind from/ knotsBaromVisibWave heightAir tempDewpointWater temp
2018-Sep-24 19:25N 24°21' E 118°48'410.5
2018-Sep-24 19:02N 24°18' E 118°45'010.5
2018-Sep-24 19:00N 24°18' E 118°45'510.2
2018-Sep-24 18:28N 24°16' E 118°39'510.8
2018-Sep-24 18:02N 24°14' E 118°35'010.1
2018-Sep-24 18:00N 24°14' E 118°34'4881.2
2018-Sep-24 18:00N 24°12' E 118°30'1 2.8 020 / 431010.0 5.4 26.026.028.0
2018-Sep-24 17:30N 24°12' E 118°28'511.8
2018-Sep-24 17:03N 24°14' E 118°23'112.2
2018-Sep-24 17:00N 24°14' E 118°23'713.2
2018-Sep-24 16:30N 24°17' E 118°16'613.9
2018-Sep-24 16:03N 24°21' E 118°10'113.9
2018-Sep-24 16:00N 24°21' E 118°09'713.3
2018-Sep-24 15:31N 24°25' E 118°04'4 8.6
2018-Sep-24 15:04N 24°29' E 118°04'0 1.1
2018-Sep-24 15:01N 24°29' E 118°04'0 0.1
2018-Sep-24 14:03N 24°29' E 118°04'0 0.0
2018-Sep-24 13:56N 24°29' E 118°04'0 0.0
2018-Sep-24 13:28N 24°29' E 118°04'0 0.0
2018-Sep-24 12:58N 24°29' E 118°04'0 0.0
2018-Sep-24 12:26N 24°29' E 118°04'0 0.0
2018-Sep-24 12:02N 24°29' E 118°04'0 0.0
2018-Sep-24 11:52N 24°29' E 118°04'0 0.0
2018-Sep-24 11:29N 24°29' E 118°04'0 0.0
2018-Sep-24 10:59N 24°29' E 118°04'0 0.0
2018-Sep-24 10:29N 24°29' E 118°04'0 0.0
2018-Sep-24 10:02N 24°29' E 118°04'0 0.0
2018-Sep-24 09:59N 24°29' E 118°04'0 0.0
2018-Sep-24 09:30N 24°29' E 118°04'1 1.5
2018-Sep-24 09:03N 24°29' E 118°04'0 6.6
2018-Sep-24 09:00N 24°29' E 118°03'510.0
2018-Sep-24 08:30N 24°24' E 118°06'511.2
2018-Sep-24 08:03N 24°20' E 118°10'112.4
2018-Sep-24 08:00N 24°20' E 118°10'612.7
2018-Sep-24 07:30N 24°17' E 118°16'613.5
2018-Sep-24 07:03N 24°14' E 118°22'113.8
2018-Sep-24 07:00N 24°14' E 118°23'612.9
2018-Sep-24 06:30N 24°13' E 118°30'715.0
2018-Sep-24 06:01N 24°14' E 118°38'15016.3
2018-Sep-23 20:49N 25°24' E 121°04'1514.4
2018-Sep-23 19:46N 25°29' E 121°19'414.1
2018-Sep-23 19:27N 25°31' E 121°24'513.3
2018-Sep-23 19:03N 25°31' E 121°30'114.2
2018-Sep-23 18:57N 25°31' E 121°31'613.7
2018-Sep-23 18:30N 25°31' E 121°38'614.0
2018-Sep-23 18:03N 25°31' E 121°45'7109.6
2018-Sep-23 18:00N 25°24' E 121°48'7265.9 030 / 371012.0 5.4 25.025.028.0
2018-Sep-23 17:58N 25°30' E 121°46'713.9
2018-Sep-23 17:26N 25°28' E 121°54'613.6
2018-Sep-23 17:00N 25°27' E 122°01'713.4
2018-Sep-23 16:29N 25°26' E 122°08'126 5.6
2018-Sep-22 18:00N 25°00' E 124°24'13811.6 140 / 61015.0 5.4 28.026.728.0
2018-Sep-22 06:05N 25°29' E 121°55'215.7
2018-Sep-22 05:58N 25°29' E 121°53'916.0
2018-Sep-22 05:25N 25°31' E 121°43'716.7
2018-Sep-22 05:00N 25°31' E 121°36'13015.8
2018-Sep-21 20:44N 24°38' E 119°24'816.4
2018-Sep-21 20:15N 24°34' E 119°17'316.2
2018-Sep-21 20:03N 24°32' E 119°14'816.3
2018-Sep-21 19:35N 24°28' E 119°07'315.9
2018-Sep-21 19:22N 24°27' E 119°04'1315.8
2018-Sep-21 18:31N 24°21' E 118°51'116.7
2018-Sep-21 18:29N 24°20' E 118°50'1530.8
2018-Sep-21 18:00N 24°12' E 118°36'3 4.7 190 / 21015.0 5.4 27.025.728.0
2018-Sep-21 17:25N 24°14' E 118°34'615.3
2018-Sep-21 17:03N 24°13' E 118°28'115.4
2018-Sep-21 16:59N 24°13' E 118°26'715.8
2018-Sep-21 16:30N 24°17' E 118°19'715.3
2018-Sep-21 16:03N 24°19' E 118°12'116.2
2018-Sep-21 16:00N 24°20' E 118°11'713.5
2018-Sep-21 15:29N 24°24' E 118°06'510.7
2018-Sep-21 15:02N 24°29' E 118°03'0 9.9
2018-Sep-21 15:00N 24°29' E 118°04'1 0.5
2018-Sep-21 13:57N 24°29' E 118°04'0 0.0
2018-Sep-21 13:27N 24°29' E 118°04'0 0.0
2018-Sep-21 13:03N 24°29' E 118°04'0 0.0
2018-Sep-21 12:51N 24°29' E 118°04'0 0.0
2018-Sep-21 12:15N 24°29' E 118°04'0 0.0
2018-Sep-21 11:57N 24°29' E 118°04'0 0.0
2018-Sep-21 11:15N 24°29' E 118°04'0 0.0
2018-Sep-21 11:03N 24°29' E 118°04'0 0.0
2018-Sep-21 10:57N 24°29' E 118°04'0 0.0
2018-Sep-21 10:21N 24°29' E 118°04'0 0.0
2018-Sep-21 10:03N 24°29' E 118°04'0 0.0
2018-Sep-21 09:51N 24°29' E 118°04'0 1.3
2018-Sep-21 09:30N 24°29' E 118°04'4 8.7
2018-Sep-21 09:03N 24°25' E 118°05'114.1
2018-Sep-21 09:00N 24°25' E 118°06'6 9.5
2018-Sep-21 08:23N 24°21' E 118°10'611.9
2018-Sep-21 07:51N 24°16' E 118°15'611.6
2018-Sep-21 07:22N 24°14' E 118°21'413.0
2018-Sep-21 07:02N 24°14' E 118°25'013.1
2018-Sep-21 07:00N 24°14' E 118°26'816.2
2018-Sep-21 06:30N 24°13' E 118°35'6315.9
2018-Sep-21 02:34N 24°43' E 119°35'715.9
2018-Sep-21 02:07N 24°47' E 119°42'8315.8
2018-Sep-20 20:51N 25°24' E 121°04'1316.4
2018-Sep-20 20:05N 25°30' E 121°16'216.6
2018-Sep-20 19:58N 25°31' E 121°18'916.4
2018-Sep-20 19:26N 25°34' E 121°27'717.0
2018-Sep-20 19:01N 25°36' E 121°34'216.3
2018-Sep-20 18:55N 25°36' E 121°36'817.1
2018-Sep-20 18:28N 25°32' E 121°44'716.7
2018-Sep-20 18:03N 25°29' E 121°51'216.8
2018-Sep-20 17:57N 25°29' E 121°53'916.7
2018-Sep-20 17:25N 25°27' E 122°02'716.6
2018-Sep-20 16:59N 25°26' E 122°10'916.5
2018-Sep-20 16:26N 25°25' E 122°20'188 8.4
2018-Sep-19 18:00N 25°18' E 125°48'26 1.1 150 / 141013.0 5.4 28.026.728.0
2018-Sep-18 18:00N 25°42' E 125°36'18715.9 120 / 121015.0 5.4 28.020.928.0
2018-Sep-18 06:15N 25°30' E 122°09'813.9
2018-Sep-18 05:41N 25°31' E 122°00'614.9
2018-Sep-18 05:18N 25°31' E 121°54'515.8
2018-Sep-18 04:59N 25°30' E 121°49'816.0
2018-Sep-18 04:30N 25°31' E 121°40'716.4
2018-Sep-18 04:03N 25°31' E 121°32'115.9
2018-Sep-18 03:58N 25°31' E 121°30'916.5
2018-Sep-18 03:26N 25°30' E 121°21'917.1
2018-Sep-18 02:55N 25°28' E 121°11'10817.3
2018-Sep-17 20:42N 24°40' E 119°25'416.8
2018-Sep-17 20:29N 24°38' E 119°22'716.8
2018-Sep-17 20:03N 24°35' E 119°15'117.0
2018-Sep-17 20:00N 24°34' E 119°14'2016.7
2018-Sep-17 18:47N 24°23' E 118°55'516.4
2018-Sep-17 18:28N 24°21' E 118°50'1632.9
2018-Sep-17 18:00N 24°12' E 118°36'2 6.2 030 / 61016.0 5.4 27.025.728.0
2018-Sep-17 17:37N 24°14' E 118°36'216.7
2018-Sep-17 17:30N 24°14' E 118°34'714.8
2018-Sep-17 17:03N 24°13' E 118°27'116.5
2018-Sep-17 16:59N 24°13' E 118°26'613.4
2018-Sep-17 16:30N 24°16' E 118°19'716.0
2018-Sep-17 16:03N 24°19' E 118°13'117.1
2018-Sep-17 16:00N 24°20' E 118°12'714.2
2018-Sep-17 15:30N 24°24' E 118°06'510.8
2018-Sep-17 15:03N 24°29' E 118°04'0 9.6
2018-Sep-17 15:00N 24°29' E 118°04'0 0.6
2018-Sep-17 14:30N 24°29' E 118°04'0 0.0
2018-Sep-17 14:00N 24°29' E 118°04'0 0.0
2018-Sep-17 13:30N 24°29' E 118°04'0 0.0
2018-Sep-17 13:01N 24°29' E 118°04'0 0.0
2018-Sep-17 12:55N 24°29' E 118°04'0 0.0
2018-Sep-17 12:28N 24°29' E 118°04'0 0.0
2018-Sep-17 12:01N 24°29' E 118°04'0 0.0
2018-Sep-17 11:58N 24°29' E 118°04'0 0.0
2018-Sep-17 11:22N 24°29' E 118°04'0 0.0
2018-Sep-17 11:01N 24°29' E 118°04'0 0.0
2018-Sep-17 10:58N 24°29' E 118°04'0 0.0
2018-Sep-17 10:28N 24°29' E 118°04'0 0.0
2018-Sep-17 10:01N 24°29' E 118°04'0 0.0
2018-Sep-17 09:58N 24°29' E 118°04'0 0.0
2018-Sep-17 09:25N 24°29' E 118°04'1 2.4
2018-Sep-17 09:03N 24°29' E 118°03'0 8.1
2018-Sep-17 09:00N 24°28' E 118°03'510.6
2018-Sep-17 08:31N 24°24' E 118°06'510.8
2018-Sep-17 08:04N 24°21' E 118°10'111.9
2018-Sep-17 08:00N 24°20' E 118°11'612.5
2018-Sep-17 07:30N 24°16' E 118°16'614.3
2018-Sep-17 07:03N 24°14' E 118°22'114.2
2018-Sep-17 07:01N 24°13' E 118°23'714.8
2018-Sep-17 06:30N 24°12' E 118°31'614.1
2018-Sep-17 06:03N 24°15' E 118°38'113.8
2018-Sep-17 06:00N 24°15' E 118°38'713.9
2018-Sep-17 05:29N 24°19' E 118°45'714.1
2018-Sep-17 05:01N 24°22' E 118°51'615.6
2018-Sep-17 04:37N 24°24' E 118°58'2815.4
2018-Sep-17 02:47N 24°38' E 119°25'615.1
2018-Sep-17 02:24N 24°40' E 119°31'515.1
2018-Sep-17 02:03N 24°42' E 119°36'114.0
2018-Sep-17 02:00N 24°43' E 119°37'1014.5
2018-Sep-17 01:17N 24°47' E 119°47'8015.3
2018-Sep-16 20:03N 25°23' E 121°06'1716.3
2018-Sep-16 19:01N 25°29' E 121°23'217.0
2018-Sep-16 18:55N 25°30' E 121°25'716.6
2018-Sep-16 18:30N 25°32' E 121°33'716.2
2018-Sep-16 18:03N 25°31' E 121°41'232.5
2018-Sep-16 18:00N 25°30' E 121°42'133.4 130 / 211012.0 5.4 26.0 28.0
2018-Sep-16 17:57N 25°31' E 121°42'917.4
2018-Sep-16 17:26N 25°29' E 121°52'717.6
2018-Sep-16 17:03N 25°28' E 121°60'117.8
2018-Sep-16 16:58N 25°28' E 122°01'137 6.0
2018-Sep-15 18:00N 25°00' E 124°30'14013.2 130 / 311011.0 5.4 28.0 24.0
2018-Sep-15 07:25N 25°28' E 121°59'815.6
2018-Sep-15 06:54N 25°30' E 121°50'1115.6
2018-Sep-15 06:12N 25°31' E 121°38'615.7
2018-Sep-15 05:48N 25°31' E 121°31'12214.8
2018-Sep-14 21:31N 24°39' E 119°29'  
Track history (hours):
 
Tides and Currents Weather Stations Pressure Air Temp Water Temp Dewpoint Dewpoint Depression Visibility Wind Speed Wind Dir Waves Ship Positions

Norwegian Dream

Operator: Norwegian Cruise Line

Last reported at 2018-Sep-24 19:25 UTC. Time now 2018-Sep-24 21:50 UTC.
Position N 24°21' E 118°48'.

Type: Ship. MMSI: 308272000.

Date/timePositionNaut miles runAvg speedWind from/ knotsBaromVisibWave heightAir tempDewpointWater temp
2018-Sep-24 19:25N 24°21' E 118°48'410.5
2018-Sep-24 19:02N 24°18' E 118°45'010.5
2018-Sep-24 19:00N 24°18' E 118°45'510.2
2018-Sep-24 18:28N 24°16' E 118°39'510.8
2018-Sep-24 18:02N 24°14' E 118°35'010.1
2018-Sep-24 18:00N 24°14' E 118°34'4881.2
2018-Sep-24 18:00N 24°12' E 118°30'1 2.8 020 / 431010.0 5.4 26.026.028.0
2018-Sep-24 17:30N 24°12' E 118°28'511.8
2018-Sep-24 17:03N 24°14' E 118°23'112.2
2018-Sep-24 17:00N 24°14' E 118°23'713.2
2018-Sep-24 16:30N 24°17' E 118°16'613.9
2018-Sep-24 16:03N 24°21' E 118°10'113.9
2018-Sep-24 16:00N 24°21' E 118°09'713.3
2018-Sep-24 15:31N 24°25' E 118°04'4 8.6
2018-Sep-24 15:04N 24°29' E 118°04'0 1.1
2018-Sep-24 15:01N 24°29' E 118°04'0 0.1
2018-Sep-24 14:03N 24°29' E 118°04'0 0.0
2018-Sep-24 13:56N 24°29' E 118°04'0 0.0
2018-Sep-24 13:28N 24°29' E 118°04'0 0.0
2018-Sep-24 12:58N 24°29' E 118°04'0 0.0
2018-Sep-24 12:26N 24°29' E 118°04'0 0.0
2018-Sep-24 12:02N 24°29' E 118°04'0 0.0
2018-Sep-24 11:52N 24°29' E 118°04'0 0.0
2018-Sep-24 11:29N 24°29' E 118°04'0 0.0
2018-Sep-24 10:59N 24°29' E 118°04'0 0.0
2018-Sep-24 10:29N 24°29' E 118°04'0 0.0
2018-Sep-24 10:02N 24°29' E 118°04'0 0.0
2018-Sep-24 09:59N 24°29' E 118°04'0 0.0
2018-Sep-24 09:30N 24°29' E 118°04'1 1.5
2018-Sep-24 09:03N 24°29' E 118°04'0 6.6
2018-Sep-24 09:00N 24°29' E 118°03'510.0
2018-Sep-24 08:30N 24°24' E 118°06'511.2
2018-Sep-24 08:03N 24°20' E 118°10'112.4
2018-Sep-24 08:00N 24°20' E 118°10'612.7
2018-Sep-24 07:30N 24°17' E 118°16'613.5
2018-Sep-24 07:03N 24°14' E 118°22'113.8
2018-Sep-24 07:00N 24°14' E 118°23'612.9
2018-Sep-24 06:30N 24°13' E 118°30'715.0
2018-Sep-24 06:01N 24°14' E 118°38'15016.3
2018-Sep-23 20:49N 25°24' E 121°04'1514.4
2018-Sep-23 19:46N 25°29' E 121°19'414.1
2018-Sep-23 19:27N 25°31' E 121°24'513.3
2018-Sep-23 19:03N 25°31' E 121°30'114.2
2018-Sep-23 18:57N 25°31' E 121°31'613.7
2018-Sep-23 18:30N 25°31' E 121°38'614.0
2018-Sep-23 18:03N 25°31' E 121°45'7109.6
2018-Sep-23 18:00N 25°24' E 121°48'7265.9 030 / 371012.0 5.4 25.025.028.0
2018-Sep-23 17:58N 25°30' E 121°46'713.9
2018-Sep-23 17:26N 25°28' E 121°54'613.6
2018-Sep-23 17:00N 25°27' E 122°01'713.4
2018-Sep-23 16:29N 25°26' E 122°08'126 5.6
2018-Sep-22 18:00N 25°00' E 124°24'13811.6 140 / 61015.0 5.4 28.026.728.0
2018-Sep-22 06:05N 25°29' E 121°55'215.7
2018-Sep-22 05:58N 25°29' E 121°53'916.0
2018-Sep-22 05:25N 25°31' E 121°43'716.7
2018-Sep-22 05:00N 25°31' E 121°36'13015.8
2018-Sep-21 20:44N 24°38' E 119°24'816.4
2018-Sep-21 20:15N 24°34' E 119°17'316.2
2018-Sep-21 20:03N 24°32' E 119°14'816.3
2018-Sep-21 19:35N 24°28' E 119°07'315.9
2018-Sep-21 19:22N 24°27' E 119°04'1315.8
2018-Sep-21 18:31N 24°21' E 118°51'116.7
2018-Sep-21 18:29N 24°20' E 118°50'1530.8
2018-Sep-21 18:00N 24°12' E 118°36'3 4.7 190 / 21015.0 5.4 27.025.728.0
2018-Sep-21 17:25N 24°14' E 118°34'615.3
2018-Sep-21 17:03N 24°13' E 118°28'115.4
2018-Sep-21 16:59N 24°13' E 118°26'715.8
2018-Sep-21 16:30N 24°17' E 118°19'715.3
2018-Sep-21 16:03N 24°19' E 118°12'116.2
2018-Sep-21 16:00N 24°20' E 118°11'713.5
2018-Sep-21 15:29N 24°24' E 118°06'510.7
2018-Sep-21 15:02N 24°29' E 118°03'0 9.9
2018-Sep-21 15:00N 24°29' E 118°04'1 0.5
2018-Sep-21 13:57N 24°29' E 118°04'0 0.0
2018-Sep-21 13:27N 24°29' E 118°04'0 0.0
2018-Sep-21 13:03N 24°29' E 118°04'0 0.0
2018-Sep-21 12:51N 24°29' E 118°04'0 0.0
2018-Sep-21 12:15N 24°29' E 118°04'0 0.0
2018-Sep-21 11:57N 24°29' E 118°04'0 0.0
2018-Sep-21 11:15N 24°29' E 118°04'0 0.0
2018-Sep-21 11:03N 24°29' E 118°04'0 0.0
2018-Sep-21 10:57N 24°29' E 118°04'0 0.0
2018-Sep-21 10:21N 24°29' E 118°04'0 0.0
2018-Sep-21 10:03N 24°29' E 118°04'0 0.0
2018-Sep-21 09:51N 24°29' E 118°04'0 1.3
2018-Sep-21 09:30N 24°29' E 118°04'4 8.7
2018-Sep-21 09:03N 24°25' E 118°05'114.1
2018-Sep-21 09:00N 24°25' E 118°06'6 9.5
2018-Sep-21 08:23N 24°21' E 118°10'611.9
2018-Sep-21 07:51N 24°16' E 118°15'611.6
2018-Sep-21 07:22N 24°14' E 118°21'413.0
2018-Sep-21 07:02N 24°14' E 118°25'013.1
2018-Sep-21 07:00N 24°14' E 118°26'816.2
2018-Sep-21 06:30N 24°13' E 118°35'6315.9
2018-Sep-21 02:34N 24°43' E 119°35'715.9
2018-Sep-21 02:07N 24°47' E 119°42'8315.8
2018-Sep-20 20:51N 25°24' E 121°04'1316.4
2018-Sep-20 20:05N 25°30' E 121°16'216.6
2018-Sep-20 19:58N 25°31' E 121°18'916.4
2018-Sep-20 19:26N 25°34' E 121°27'717.0
2018-Sep-20 19:01N 25°36' E 121°34'216.3
2018-Sep-20 18:55N 25°36' E 121°36'817.1
2018-Sep-20 18:28N 25°32' E 121°44'716.7
2018-Sep-20 18:03N 25°29' E 121°51'216.8
2018-Sep-20 17:57N 25°29' E 121°53'916.7
2018-Sep-20 17:25N 25°27' E 122°02'716.6
2018-Sep-20 16:59N 25°26' E 122°10'916.5
2018-Sep-20 16:26N 25°25' E 122°20'188 8.4
2018-Sep-19 18:00N 25°18' E 125°48'26 1.1 150 / 141013.0 5.4 28.026.728.0
2018-Sep-18 18:00N 25°42' E 125°36'18715.9 120 / 121015.0 5.4 28.020.928.0
2018-Sep-18 06:15N 25°30' E 122°09'813.9
2018-Sep-18 05:41N 25°31' E 122°00'614.9
2018-Sep-18 05:18N 25°31' E 121°54'515.8
2018-Sep-18 04:59N 25°30' E 121°49'816.0
2018-Sep-18 04:30N 25°31' E 121°40'716.4
2018-Sep-18 04:03N 25°31' E 121°32'115.9
2018-Sep-18 03:58N 25°31' E 121°30'916.5
2018-Sep-18 03:26N 25°30' E 121°21'917.1
2018-Sep-18 02:55N 25°28' E 121°11'10817.3
2018-Sep-17 20:42N 24°40' E 119°25'416.8
2018-Sep-17 20:29N 24°38' E 119°22'716.8
2018-Sep-17 20:03N 24°35' E 119°15'117.0
2018-Sep-17 20:00N 24°34' E 119°14'2016.7
2018-Sep-17 18:47N 24°23' E 118°55'516.4
2018-Sep-17 18:28N 24°21' E 118°50'1632.9
2018-Sep-17 18:00N 24°12' E 118°36'2 6.2 030 / 61016.0 5.4 27.025.728.0
2018-Sep-17 17:37N 24°14' E 118°36'216.7
2018-Sep-17 17:30N 24°14' E 118°34'714.8
2018-Sep-17 17:03N 24°13' E 118°27'116.5
2018-Sep-17 16:59N 24°13' E 118°26'613.4
2018-Sep-17 16:30N 24°16' E 118°19'716.0
2018-Sep-17 16:03N 24°19' E 118°13'117.1
2018-Sep-17 16:00N 24°20' E 118°12'714.2
2018-Sep-17 15:30N 24°24' E 118°06'510.8
2018-Sep-17 15:03N 24°29' E 118°04'0 9.6
2018-Sep-17 15:00N 24°29' E 118°04'0 0.6
2018-Sep-17 14:30N 24°29' E 118°04'0 0.0
2018-Sep-17 14:00N 24°29' E 118°04'0 0.0
2018-Sep-17 13:30N 24°29' E 118°04'0 0.0
2018-Sep-17 13:01N 24°29' E 118°04'0 0.0
2018-Sep-17 12:55N 24°29' E 118°04'0 0.0
2018-Sep-17 12:28N 24°29' E 118°04'0 0.0
2018-Sep-17 12:01N 24°29' E 118°04'0 0.0
2018-Sep-17 11:58N 24°29' E 118°04'0 0.0
2018-Sep-17 11:22N 24°29' E 118°04'0 0.0
2018-Sep-17 11:01N 24°29' E 118°04'0 0.0
2018-Sep-17 10:58N 24°29' E 118°04'0 0.0
2018-Sep-17 10:28N 24°29' E 118°04'0 0.0
2018-Sep-17 10:01N 24°29' E 118°04'0 0.0
2018-Sep-17 09:58N 24°29' E 118°04'0 0.0
2018-Sep-17 09:25N 24°29' E 118°04'1 2.4
2018-Sep-17 09:03N 24°29' E 118°03'0 8.1
2018-Sep-17 09:00N 24°28' E 118°03'510.6
2018-Sep-17 08:31N 24°24' E 118°06'510.8
2018-Sep-17 08:04N 24°21' E 118°10'111.9
2018-Sep-17 08:00N 24°20' E 118°11'612.5
2018-Sep-17 07:30N 24°16' E 118°16'614.3
2018-Sep-17 07:03N 24°14' E 118°22'114.2
2018-Sep-17 07:01N 24°13' E 118°23'714.8
2018-Sep-17 06:30N 24°12' E 118°31'614.1
2018-Sep-17 06:03N 24°15' E 118°38'113.8
2018-Sep-17 06:00N 24°15' E 118°38'713.9
2018-Sep-17 05:29N 24°19' E 118°45'714.1
2018-Sep-17 05:01N 24°22' E 118°51'615.6
2018-Sep-17 04:37N 24°24' E 118°58'2815.4
2018-Sep-17 02:47N 24°38' E 119°25'615.1
2018-Sep-17 02:24N 24°40' E 119°31'515.1
2018-Sep-17 02:03N 24°42' E 119°36'114.0
2018-Sep-17 02:00N 24°43' E 119°37'1014.5
2018-Sep-17 01:17N 24°47' E 119°47'8015.3
2018-Sep-16 20:03N 25°23' E 121°06'1716.3
2018-Sep-16 19:01N 25°29' E 121°23'217.0
2018-Sep-16 18:55N 25°30' E 121°25'716.6
2018-Sep-16 18:30N 25°32' E 121°33'716.2
2018-Sep-16 18:03N 25°31' E 121°41'232.5
2018-Sep-16 18:00N 25°30' E 121°42'133.4 130 / 211012.0 5.4 26.0 28.0
2018-Sep-16 17:57N 25°31' E 121°42'917.4
2018-Sep-16 17:26N 25°29' E 121°52'717.6
2018-Sep-16 17:03N 25°28' E 121°60'117.8
2018-Sep-16 16:58N 25°28' E 122°01'137 6.0
2018-Sep-15 18:00N 25°00' E 124°30'14013.2 130 / 311011.0 5.4 28.0 24.0
2018-Sep-15 07:25N 25°28' E 121°59'815.6
2018-Sep-15 06:54N 25°30' E 121°50'1115.6
2018-Sep-15 06:12N 25°31' E 121°38'615.7
2018-Sep-15 05:48N 25°31' E 121°31'12214.8
2018-Sep-14 21:31N 24°39' E 119°29'  

Dump ship's entire track history